KMOP/MOP METAR and TAF weather

Enter ICAO airport designator
Station Type Date Time Source
KMOP METAR 2022/09/26 08:35 UTC NOAA

KMOP 260835Z AUTO 25008KT 10SM RA SCT015 SCT024 OVC065 11/11 A2957 RMK AO2 T01050105 P0007


Station Type Date Time Source
KMOP Decoded METAR 2022/09/26 08:35 UTC NOAA

Mount Pleasant, Mount Pleasant Municipal Airport, MI, United States (KMOP) 43-37N 84-44W
Sep 26, 2022 - 04:35 AM EDT / 2022.09.26 0835 UTC
Wind: from the WSW (250 degrees) at 9 MPH (8 KT):0
Visibility: 10 mile(s):0
Sky conditions: overcast
Weather: rain
Precipitation last hour: 0.07 inches
Temperature: 50.9 F (10.5 C)
Dew Point: 50.9 F (10.5 C)
Relative Humidity: 100%
Pressure (altimeter): 29.57 in. Hg (1001 hPa)
ob: KMOP 260835Z AUTO 25008KT 10SM RA SCT015 SCT024 OVC065 11/11 A2957 RMK AO2 T01050105 P0007
cycle: 8

Station Type Date Time Source
KMOP TAF UTC NOAA

Error!

Example: see airport list